Αρχική σελίδα
METAR-TAF:

METAR-TAF

Αεροδρόμια :

Ciudad Guayana, Βενεζουέλα

γεωγραφικό πλάτος: 08-18N, γεωγραφικό μήκος: 062-44W, υψόμετρο: 144 μ

Παρών καιρός

Η αναφορά έγινε 58 λεπτά πριν, στις 01:03 UTC
Άνεμος 6 kt από Β/BA
Θερμοκρασία 25°C
Υγρασία 83%
Πίεση 1014 hPa

METAR: SVPR 230103Z AUTO 02006KT NCD 25/22 Q1014

Χρόνος: 22:01 (02:01 UTC)

Πρόγνωση Καιρού

Η αναφορά έγινε 4 ώρες και 1 λεπτά πριν, στις 22:00 UTC
Η πρόγνωση ισχύει από τις 23 στις 00 UTC έως τις 24 στις 00 UTC
Άνεμος 5 kt από Α/BA
Ορατότητα 10 χλμ και άνω
Διάσπαρτα νέφη σε ύψος 1300 πόδια
Προσωρινά
από 23 στις 00 UTC έως τις 23 στις 04 UTC
Άνεμος 3 kt από BA
Ορατότητα: 5000 μ
Νεφοσκεπής σε ύψος 1300 πόδια, Σωρειτομελανίτες.
καταιγίδα, δυνατή βροχή,

TAF: SVPR 222200Z 2300/2400 06005KT 9999 SCT013 TX35/2218Z TN23/2307Z TEMPO 2300/2304 05003KT 5000 +TSRA OVC013CB

Μετεωρολογικές αναφορές και προγνώσεις για περισσότερα από 4000 αεροδρόμια (δελτία METAR και TAF).

Οι διαθέσιμοι σταθμοί απεικονίζονται στο χάρτη με κίτρινες και κόκκινες κουκκίδες.

Μετακινήστε το ποντίκι πάνω από τις κουκκίδες για να δείτε το όνομα του σταθμού.

Στη συνέχεια, κάντε κλικ για να δείτε τις μετεωρολογικές αναφορές και τις προγνώσεις καιρού.

Για να αλλάξετε το χάρτη: κάντε κλικ στα πράσινα κουμπιά με τον μαύρο σταυρό για να ζουμάρετε, στο πράσινο κουμπί με την παύλα για να αφαιρέσετε το ζουμ ή στα πράσινα βέλη για να αντιπαραβάλλετε χάρτες.


METAR-TAF: